Time;durP1;ratioP1;P1;durP2;ratioP2;P2;SDS_P1;SDS_P2;PMS_P1;PMS_P2;Temp;Humidity;BMP_temperature;BMP_pressure;BME280_temperature;BME280_humidity;BME280_pressure;Samples;Min_cycle;Max_cycle;Signal;HPM_P1;HPM_P2
2022/02/10 00:16:36;;;;;;;8.73;7.93;;;;;;;-1.50;100.00;97787.72;4974364;28;20525;-49
2022/02/10 00:19:37;;;;;;;7.93;7.13;;;;;;;-1.58;100.00;97784.72;4961103;28;24313;-53
2022/02/10 00:22:13;;;;;;;8.47;7.57;;;;;;;-1.58;100.00;97785.59;4967472;28;20221;-50
2022/02/10 00:35:51;;;;;;;9.27;7.97;;;;;;;-1.48;100.00;97793.66;4954300;28;20216;-51
2022/02/10 00:38:22;;;;;;;9.87;8.67;;;;;;;-1.49;100.00;97787.63;4966550;28;20209;-53
2022/02/10 00:40:50;;;;;;;9.70;8.80;;;;;;;-1.61;100.00;97767.59;4985713;28;20209;-52
2022/02/10 00:43:20;;;;;;;9.93;9.03;;;;;;;-1.57;100.00;97783.81;4991760;28;20241;-49
2022/02/10 00:45:48;;;;;;;12.47;10.13;;;;;;;-1.40;100.00;97781.03;4981122;28;20595;-53
2022/02/10 00:48:17;;;;;;;10.77;9.53;;;;;;;-1.34;100.00;97785.84;4979474;28;20479;-48
2022/02/10 00:50:47;;;;;;;11.17;9.93;;;;;;;-1.38;100.00;97781.78;4954892;28;20221;-53
2022/02/10 00:53:19;;;;;;;12.30;9.57;;;;;;;-1.40;100.00;97780.19;4984879;28;20328;-52
2022/02/10 00:55:56;;;;;;;10.63;9.43;;;;;;;-1.30;100.00;97781.31;4966193;28;20425;-49
2022/02/10 00:58:28;;;;;;;10.43;9.33;;;;;;;-1.32;100.00;97781.38;4985023;28;20208;-50
2022/02/10 01:31:33;;;;;;;10.00;9.00;;;;;;;-1.97;100.00;97763.66;4971449;28;20232;-50
2022/02/10 01:34:01;;;;;;;9.40;8.57;;;;;;;-1.96;100.00;97766.16;4955786;28;20209;-47
2022/02/10 01:36:30;;;;;;;10.53;9.47;;;;;;;-1.93;100.00;97763.38;4938370;28;20222;-47
2022/02/10 01:38:58;;;;;;;12.17;9.77;;;;;;;-1.82;100.00;97765.34;4971927;28;20412;-46
2022/02/10 01:58:11;;;;;;;10.47;8.83;;;;;;;-2.01;100.00;97759.56;4965381;28;20459;-50
2022/02/10 02:03:28;;;;;;;11.60;10.07;;;;;;;-2.09;100.00;97745.25;4984501;28;20220;-50
2022/02/10 02:06:02;;;;;;;11.23;9.70;;;;;;;-1.94;100.00;97738.31;4968681;28;20786;-51
2022/02/10 02:08:34;;;;;;;9.50;8.60;;;;;;;-2.01;100.00;97739.63;4956623;28;20494;-49
2022/02/10 02:11:02;;;;;;;9.83;8.83;;;;;;;-2.09;100.00;97728.84;4981845;28;20678;-49
2022/02/10 02:13:31;;;;;;;10.33;9.20;;;;;;;-2.10;100.00;97725.41;4965614;28;20221;-48
2022/02/10 02:16:01;;;;;;;9.70;8.83;;;;;;;-2.07;100.00;97725.25;4981681;28;20206;-49
2022/02/10 02:18:30;;;;;;;9.73;8.93;;;;;;;-2.09;100.00;97723.66;4984185;28;20226;-50
2022/02/10 02:20:59;;;;;;;11.37;9.90;;;;;;;-2.04;100.00;97716.44;4969704;28;20684;-50
2022/02/10 02:23:30;;;;;;;10.30;9.30;;;;;;;-1.88;100.00;97724.16;4986387;28;20213;-49
2022/02/10 02:26:03;;;;;;;11.40;9.70;;;;;;;-1.80;100.00;97721.91;4953771;28;20739;-54
2022/02/10 02:28:35;;;;;;;13.17;9.67;;;;;;;-1.67;100.00;97719.41;4987556;28;20592;-50
2022/02/10 02:31:08;;;;;;;12.63;10.57;;;;;;;-1.63;100.00;97714.88;4969315;28;20756;-47
2022/02/10 03:04:26;;;;;;;14.10;11.33;;;;;;;-1.63;100.00;97707.06;4910350;29;20404;-49
2022/02/10 03:06:59;;;;;;;11.03;10.00;;;;;;;-1.55;100.00;97714.38;4897701;29;20442;-51
2022/02/10 03:09:28;;;;;;;14.33;11.23;;;;;;;-1.76;100.00;97710.41;4912010;29;20231;-49
2022/02/10 03:11:59;;;;;;;14.37;11.73;;;;;;;-1.88;100.00;97713.75;4873965;29;20239;-47
2022/02/10 03:14:31;;;;;;;12.07;10.80;;;;;;;-1.95;100.00;97709.88;4913256;29;20461;-52
2022/02/10 03:17:35;;;;;;;12.07;10.67;;;;;;;-1.96;100.00;97705.59;4895035;28;20369;-46
2022/02/10 03:20:16;;;;;;;11.13;10.03;;;;;;;-1.99;100.00;97706.59;4985074;28;20197;-51
2022/02/10 04:07:54;;;;;;;14.30;11.70;;;;;;;-2.08;100.00;97682.03;4852540;29;20309;-47
2022/02/10 04:10:48;;;;;;;16.30;13.23;;;;;;;-1.95;100.00;97676.91;4863729;29;20295;-49
2022/02/10 04:13:36;;;;;;;15.03;12.47;;;;;;;-1.94;100.00;97677.75;4857218;29;20319;-51
2022/02/10 04:16:12;;;;;;;20.97;12.93;;;;;;;-2.10;100.00;97675.25;4893285;29;20664;-49
2022/02/10 04:21:41;;;;;;;22.27;12.67;;;;;;;-2.43;100.00;97684.97;4888706;29;20475;-49
2022/02/10 04:24:23;;;;;;;15.57;13.03;;;;;;;-2.43;100.00;97687.56;4889813;29;20239;-53
2022/02/10 04:26:59;;;;;;;19.90;12.93;;;;;;;-2.41;100.00;97680.53;4873268;29;20412;-50
2022/02/10 04:29:52;;;;;;;25.97;15.60;;;;;;;-2.42;100.00;97673.66;4855526;29;20639;-51
2022/02/10 04:55:07;;;;;;;41.77;17.37;;;;;;;-1.98;100.00;97652.91;4969141;28;21326;-51
2022/02/10 04:57:50;;;;;;;38.20;16.87;;;;;;;-1.90;100.00;97667.06;4972079;28;22248;-51
2022/02/10 05:06:22;;;;;;;27.00;15.93;;;;;;;-1.75;100.00;97667.09;4961874;28;20223;-53
2022/02/10 05:22:51;;;;;;;23.70;13.43;;;;;;;-1.69;100.00;97660.69;4982755;28;20229;-50
2022/02/10 05:33:46;;;;;;;24.47;14.57;;;;;;;-1.55;100.00;97659.78;4986990;28;20315;-53
2022/02/10 05:36:17;;;;;;;26.90;15.97;;;;;;;-1.53;100.00;97650.13;4963784;28;20547;-54
2022/02/10 05:38:50;;;;;;;24.83;16.77;;;;;;;-1.46;100.00;97659.25;4983270;28;20219;-51
2022/02/10 05:44:45;;;;;;;21.40;14.83;;;;;;;-1.48;100.00;97655.91;4953670;28;20300;-47
2022/02/10 05:50:32;;;;;;;21.10;15.03;;;;;;;-1.33;100.00;97654.06;4967923;28;20812;-52
2022/02/10 05:56:03;;;;;;;25.70;16.03;;;;;;;-1.42;100.00;97646.88;4974341;28;20215;-50
2022/02/10 05:58:39;;;;;;;39.43;20.10;;;;;;;-1.52;100.00;97638.81;4987131;28;20263;-48
2022/02/10 06:51:26;;;;;;;39.10;18.43;;;;;;;-1.26;100.00;97644.97;4909038;28;20672;-45
2022/02/10 06:54:06;;;;;;;35.57;18.17;;;;;;;-1.32;100.00;97647.97;4902490;28;20212;-51
2022/02/10 06:57:09;;;;;;;34.60;18.87;;;;;;;-1.32;100.00;97641.00;4921536;28;20215;-48
2022/02/10 07:03:02;;;;;;;33.87;16.73;;;;;;;-1.17;100.00;97620.97;4890667;28;20476;-53
2022/02/10 07:06:07;;;;;;;36.33;20.47;;;;;;;-1.07;100.00;97621.22;4910458;28;20473;-52
2022/02/10 07:08:52;;;;;;;42.87;17.13;;;;;;;-1.05;100.00;97624.56;4897636;28;20685;-49
2022/02/10 07:11:44;;;;;;;41.90;21.33;;;;;;;-1.19;100.00;97633.25;4922881;28;20534;-57
2022/02/10 07:14:32;;;;;;;53.87;21.10;;;;;;;-1.18;100.00;97634.91;4908561;28;20258;-50
2022/02/10 07:17:19;;;;;;;42.37;20.03;;;;;;;-1.09;100.00;97627.44;4899918;28;20247;-51
2022/02/10 07:47:47;;;;;;;42.87;19.73;;;;;;;-0.87;100.00;97613.84;4972505;28;20240;-51
2022/02/10 07:50:42;;;;;;;40.33;19.50;;;;;;;-0.83;100.00;97612.72;4951623;28;20389;-53
2022/02/10 07:53:47;;;;;;;25.37;17.10;;;;;;;-0.75;100.00;97620.88;4958939;28;20463;-49
2022/02/10 07:56:39;;;;;;;31.47;18.27;;;;;;;-0.69;100.00;97622.22;4981342;28;20212;-47
2022/02/10 08:49:57;;;;;;;19.23;16.17;;;;;;;1.14;100.00;97609.47;4971010;28;20707;-50
2022/02/10 09:03:54;;;;;;;15.17;13.67;;;;;;;1.59;100.00;97592.22;4968525;28;20333;-52
2022/02/10 09:06:34;;;;;;;13.37;11.97;;;;;;;1.86;100.00;97591.06;4949938;28;20220;-50
2022/02/10 09:12:24;;;;;;;11.53;10.43;;;;;;;2.00;100.00;97587.38;4954395;28;20720;-48
2022/02/10 09:57:30;;;;;;;8.27;7.47;;;;;;;3.29;100.00;97591.00;4859632;29;20328;-48
2022/02/10 10:02:53;;;;;;;9.27;8.37;;;;;;;3.36;100.00;97601.81;4867384;29;20230;-52
2022/02/10 10:05:29;;;;;;;8.73;8.03;;;;;;;3.56;100.00;97601.94;4871786;29;20413;-50
2022/02/10 10:08:19;;;;;;;8.57;7.90;;;;;;;3.68;100.00;97598.28;4855199;29;20262;-51
2022/02/10 10:11:11;;;;;;;9.60;8.77;;;;;;;3.72;100.00;97597.06;4901347;29;20231;-51
2022/02/10 10:14:06;;;;;;;8.77;7.97;;;;;;;3.66;100.00;97592.34;4902100;28;20217;-46
2022/02/10 10:16:56;;;;;;;9.67;8.97;;;;;;;3.89;100.00;97593.00;4980726;28;20681;-49
2022/02/10 10:19:49;;;;;;;8.93;8.17;;;;;;;3.74;100.00;97592.53;4987120;28;20360;-49
2022/02/10 10:22:44;;;;;;;11.40;10.40;;;;;;;3.75;100.00;97588.94;4983054;28;20447;-50
2022/02/10 10:25:46;;;;;;;11.03;9.93;;;;;;;4.04;100.00;97585.63;4974701;28;22189;-53
2022/02/10 10:51:05;;;;;;;8.73;8.03;;;;;;;4.34;100.00;97552.41;4970307;28;20221;-49
2022/02/10 10:53:41;;;;;;;8.80;8.00;;;;;;;4.56;100.00;97552.31;4984732;28;20229;-49
2022/02/10 10:56:13;;;;;;;7.87;7.27;;;;;;;4.74;100.00;97534.09;4946159;28;20759;-54
2022/02/10 10:59:00;;;;;;;9.57;8.60;;;;;;;4.89;100.00;97535.31;4982158;28;20201;-51
2022/02/10 11:05:38;;;;;;;9.00;8.17;;;;;;;5.14;100.00;97530.47;4982381;28;20222;-46
2022/02/10 11:36:28;;;;;;;9.43;7.17;;;;;;;5.90;100.00;97483.16;4925830;28;20915;-52
2022/02/10 11:39:21;;;;;;;9.30;7.43;;;;;;;6.18;100.00;97477.88;4913552;28;20226;-51
2022/02/10 11:42:25;;;;;;;8.13;7.40;;;;;;;6.31;100.00;97459.09;4899879;28;20223;-50
2022/02/10 11:45:35;;;;;;;8.07;7.37;;;;;;;6.41;100.00;97465.09;4926237;28;20555;-50
2022/02/10 13:23:58;;;;;;;3.37;3.10;;;;;;;9.10;100.00;97433.16;4924071;28;20203;-51
2022/02/10 14:09:18;;;;;;;3.93;3.53;;;;;;;8.38;100.00;97453.13;5022787;28;20635;-48
2022/02/10 14:12:33;;;;;;;3.67;3.37;;;;;;;8.42;100.00;97452.78;5041633;28;20819;-52
2022/02/10 14:14:51;;;;;;;3.57;3.27;;;;;;;8.55;100.00;97445.25;5042970;28;20206;-56
2022/02/10 14:17:29;;;;;;;4.20;3.90;;;;;;;8.48;100.00;97444.19;5044802;28;20592;-50
2022/02/10 14:20:10;;;;;;;6.43;3.43;;;;;;;8.36;100.00;97446.38;5005932;28;20215;-50
2022/02/10 14:22:51;;;;;;;2.93;2.80;;;;;;;8.60;100.00;97448.22;5040723;28;20233;-53
2022/02/10 14:28:13;;;;;;;4.07;3.67;;;;;;;8.89;100.00;97448.69;5042221;28;20207;-47
2022/02/10 14:30:41;;;;;;;3.73;3.47;;;;;;;8.95;100.00;97433.00;5044031;28;20753;-50
2022/02/10 14:33:10;;;;;;;3.53;3.23;;;;;;;8.86;100.00;97446.41;5006523;28;20566;-49
2022/02/10 14:35:49;;;;;;;5.03;3.43;;;;;;;8.69;100.00;97443.75;5042391;28;20217;-46
2022/02/10 14:38:38;;;;;;;3.80;3.50;;;;;;;8.54;100.00;97436.50;5045209;28;20207;-51
2022/02/10 15:46:29;;;;;;;5.23;4.57;;;;;;;7.06;100.00;97445.53;4938234;28;20311;-50
2022/02/10 15:51:57;;;;;;;4.37;3.97;;;;;;;7.02;100.00;97452.09;4933261;28;20751;-49
2022/02/10 16:11:31;;;;;;;6.87;4.93;;;;;;;6.78;100.00;97445.66;4851451;29;20338;-47
2022/02/10 16:16:54;;;;;;;4.80;4.40;;;;;;;6.78;100.00;97450.13;4862632;29;20208;-47
2022/02/10 16:19:24;;;;;;;5.27;4.77;;;;;;;6.82;100.00;97454.09;4889762;29;20224;-49
2022/02/10 16:22:02;;;;;;;5.13;4.63;;;;;;;6.76;100.00;97450.25;4851801;29;20243;-48
2022/02/10 16:24:35;;;;;;;5.33;4.83;;;;;;;6.66;100.00;97452.16;4890865;29;20363;-46
2022/02/10 16:27:14;;;;;;;5.70;4.27;;;;;;;6.54;100.00;97442.88;4852305;29;20815;-47
2022/02/10 16:29:42;;;;;;;4.47;4.17;;;;;;;6.47;100.00;97448.75;4937240;28;22596;-50
2022/02/10 16:32:11;;;;;;;6.03;5.13;;;;;;;6.49;100.00;97446.78;4931439;28;20746;-52
2022/02/10 16:34:44;;;;;;;4.83;4.43;;;;;;;6.45;100.00;97455.13;4950446;28;20206;-49
2022/02/10 16:37:17;;;;;;;5.67;5.23;;;;;;;6.42;100.00;97450.97;4916998;28;20246;-51
2022/02/10 16:39:52;;;;;;;6.37;4.93;;;;;;;6.43;100.00;97454.44;4921377;28;20640;-50
2022/02/10 16:42:25;;;;;;;5.57;4.93;;;;;;;6.22;100.00;97448.50;4902027;28;21501;-48
2022/02/10 16:44:58;;;;;;;4.83;4.43;;;;;;;6.38;100.00;97454.88;4989992;28;20620;-49
2022/02/10 16:47:30;;;;;;;5.23;4.83;;;;;;;6.31;100.00;97449.41;5002578;28;20208;-49
2022/02/10 16:50:04;;;;;;;7.10;5.37;;;;;;;6.28;100.00;97448.88;5026207;28;20218;-51
2022/02/10 16:52:42;;;;;;;7.53;6.70;;;;;;;6.30;100.00;97455.66;4994072;28;21191;-49
2022/02/10 16:55:24;;;;;;;6.77;6.00;;;;;;;6.27;100.00;97455.97;5008993;28;20561;-48
2022/02/10 16:58:11;;;;;;;6.03;5.43;;;;;;;6.21;100.00;97443.38;4987072;28;20212;-49
2022/02/10 17:03:51;;;;;;;5.27;4.70;;;;;;;6.32;100.00;97466.88;4971849;28;20229;-50
2022/02/10 17:18:19;;;;;;;6.13;5.03;;;;;;;6.25;100.00;97454.44;4899183;28;20230;-48
2022/02/10 17:20:50;;;;;;;5.57;4.80;;;;;;;6.36;100.00;97455.06;4928086;28;20352;-49
2022/02/10 17:26:25;;;;;;;5.90;5.40;;;;;;;6.27;100.00;97453.34;4915922;28;20210;-49
2022/02/10 17:28:56;;;;;;;6.70;5.80;;;;;;;6.28;100.00;97454.97;4903705;28;20362;-52
2022/02/10 17:31:44;;;;;;;5.30;4.80;;;;;;;6.26;100.00;97456.94;4908831;28;20111;-47
2022/02/10 17:34:25;;;;;;;5.50;4.93;;;;;;;6.16;100.00;97450.91;4908507;28;20924;-46
2022/02/10 17:37:08;;;;;;;5.70;5.30;;;;;;;6.06;100.00;97453.59;4932422;28;20213;-47
2022/02/10 17:42:46;;;;;;;10.87;4.93;;;;;;;6.10;100.00;97459.38;4948859;28;20463;-45
2022/02/10 17:45:35;;;;;;;5.17;4.67;;;;;;;6.16;100.00;97464.06;4919246;28;20211;-50
2022/02/10 17:53:39;;;;;;;5.33;4.63;;;;;;;5.90;100.00;97468.19;4991813;28;20609;-48
2022/02/10 17:56:08;;;;;;;6.20;5.37;;;;;;;5.99;100.00;97453.34;4988418;28;20595;-48
2022/02/10 17:58:36;;;;;;;5.70;4.60;;;;;;;6.06;100.00;97462.31;5024037;28;20204;-48
2022/02/10 18:01:07;;;;;;;6.07;5.40;;;;;;;5.82;100.00;97444.44;4990463;28;20216;-46
2022/02/10 18:03:35;;;;;;;5.83;5.40;;;;;;;5.90;100.00;97457.69;5003547;28;20223;-47
2022/02/10 18:09:06;;;;;;;6.63;6.03;;;;;;;5.94;100.00;97461.66;5026478;28;20274;-47
2022/02/10 18:12:14;;;;;;;6.87;6.23;;;;;;;5.91;100.00;97469.03;5005104;28;20352;-47
2022/02/10 18:14:34;;;;;;;7.97;6.83;;;;;;;5.78;100.00;97469.38;4998711;28;21751;-46
2022/02/10 18:17:28;;;;;;;7.70;7.00;;;;;;;5.74;100.00;97468.84;5006256;28;20223;-44
2022/02/10 18:20:00;;;;;;;6.33;5.73;;;;;;;5.57;100.00;97490.66;5022883;28;20200;-48
2022/02/10 18:28:33;;;;;;;6.83;5.67;;;;;;;5.92;100.00;97492.53;5020991;28;20214;-48
2022/02/10 18:34:31;;;;;;;5.87;5.37;;;;;;;5.62;100.00;97470.00;5009687;28;20211;-46
2022/02/10 19:07:37;;;;;;;5.20;4.70;;;;;;;5.55;100.00;97479.47;5006661;28;20434;-47
2022/02/10 19:10:07;;;;;;;5.43;4.97;;;;;;;5.24;100.00;97471.81;5020573;28;20204;-51
2022/02/10 19:12:43;;;;;;;5.43;4.87;;;;;;;5.29;100.00;97480.09;4989643;28;20326;-47
2022/02/10 19:15:18;;;;;;;4.73;4.13;;;;;;;5.47;100.00;97486.25;5020069;28;20210;-45
2022/02/10 19:17:46;;;;;;;4.60;4.27;;;;;;;5.35;100.00;97480.34;4997859;28;20235;-49
2022/02/10 19:20:15;;;;;;;4.37;4.10;;;;;;;5.43;100.00;97474.34;5002434;28;20230;-44
2022/02/10 19:22:44;;;;;;;4.93;4.43;;;;;;;5.43;100.00;97479.63;5023292;28;20250;-45
2022/02/10 19:25:13;;;;;;;5.10;4.70;;;;;;;5.42;100.00;97475.34;5011391;28;20744;-46
2022/02/10 19:27:43;;;;;;;4.30;3.90;;;;;;;5.33;100.00;97478.81;4985879;28;20587;-46
2022/02/10 19:30:13;;;;;;;3.87;3.57;;;;;;;5.32;100.00;97485.06;5024183;28;20576;-48
2022/02/10 19:32:47;;;;;;;4.20;3.90;;;;;;;5.46;100.00;97484.56;4969707;28;20924;-45
2022/02/10 19:35:17;;;;;;;4.40;4.10;;;;;;;5.40;100.00;97477.28;5004297;28;20212;-47
2022/02/10 19:37:47;;;;;;;4.23;3.80;;;;;;;5.28;100.00;97487.13;5026595;28;20304;-50
2022/02/10 19:40:17;;;;;;;3.70;3.40;;;;;;;5.45;100.00;97492.63;5010779;28;20583;-51
2022/02/10 19:42:47;;;;;;;4.10;3.80;;;;;;;5.35;100.00;97496.13;4988845;28;20958;-45
2022/02/10 19:45:16;;;;;;;4.20;3.93;;;;;;;5.35;100.00;97500.53;5026629;28;20220;-48
2022/02/10 19:47:44;;;;;;;4.00;3.70;;;;;;;5.42;100.00;97491.09;5005531;28;20966;-48
2022/02/10 19:50:16;;;;;;;3.63;3.33;;;;;;;5.33;100.00;97482.31;4987189;28;20219;-46
2022/02/10 19:52:49;;;;;;;3.90;3.50;;;;;;;5.19;100.00;97488.84;5026519;28;20238;-45
2022/02/10 19:55:20;;;;;;;4.73;3.97;;;;;;;5.35;100.00;97485.63;5011124;28;20209;-48
2022/02/10 19:57:53;;;;;;;3.80;3.50;;;;;;;5.19;100.00;97478.31;5023515;28;20654;-46
2022/02/10 20:00:26;;;;;;;3.87;3.53;;;;;;;5.21;100.00;97481.63;4990868;28;20252;-47
2022/02/10 20:02:55;;;;;;;3.47;3.27;;;;;;;5.10;100.00;97481.78;5032763;28;20231;-48
2022/02/10 20:05:25;;;;;;;3.40;3.20;;;;;;;5.04;100.00;97487.59;4976686;28;20231;-47
2022/02/10 20:07:55;;;;;;;4.43;3.67;;;;;;;5.07;100.00;97480.28;5017897;28;20208;-45
2022/02/10 20:10:24;;;;;;;4.87;4.47;;;;;;;4.87;100.00;97486.53;5011240;28;20214;-50
2022/02/10 20:12:52;;;;;;;4.07;3.77;;;;;;;4.69;100.00;97468.88;5027616;28;20775;-46
2022/02/10 20:15:22;;;;;;;4.67;4.10;;;;;;;4.50;100.00;97477.59;4996858;28;20919;-50
2022/02/10 20:17:51;;;;;;;4.70;4.40;;;;;;;4.46;100.00;97471.78;5029056;28;20207;-50
2022/02/10 20:20:19;;;;;;;4.10;3.73;;;;;;;4.35;100.00;97477.97;5006227;28;20671;-46
2022/02/10 20:22:48;;;;;;;4.57;4.17;;;;;;;4.51;100.00;97486.28;5012230;28;21188;-47
2022/02/10 20:25:37;;;;;;;4.13;3.83;;;;;;;4.46;100.00;97482.28;5008764;28;20341;-48
2022/02/10 20:28:09;;;;;;;4.93;4.53;;;;;;;4.58;100.00;97475.09;5023916;28;20204;-50
2022/02/10 20:30:38;;;;;;;5.27;3.93;;;;;;;4.61;100.00;97474.81;4989283;28;20969;-50
2022/02/10 20:33:06;;;;;;;4.80;4.17;;;;;;;4.81;100.00;97476.59;5021346;28;20224;-46
2022/02/10 20:35:43;;;;;;;4.37;3.97;;;;;;;4.69;100.00;97470.66;4996158;28;20489;-48
2022/02/10 20:38:13;;;;;;;4.30;4.00;;;;;;;4.69;100.00;97476.75;5010118;28;20680;-47
2022/02/10 20:40:45;;;;;;;6.00;4.50;;;;;;;4.63;100.00;97480.75;5004241;28;21776;-48
2022/02/10 20:43:13;;;;;;;4.87;4.37;;;;;;;4.81;100.00;97479.22;5019384;28;20619;-44
2022/02/10 20:45:42;;;;;;;5.63;4.57;;;;;;;4.83;100.00;97482.53;5020660;28;20869;-48
2022/02/10 20:48:10;;;;;;;4.17;3.87;;;;;;;4.93;100.00;97486.81;4970536;28;20220;-48
2022/02/10 20:50:38;;;;;;;4.67;4.37;;;;;;;4.93;100.00;97475.50;5016302;28;20201;-49
2022/02/10 20:53:06;;;;;;;4.67;4.27;;;;;;;4.89;100.00;97485.44;4980751;28;20586;-49
2022/02/10 20:55:34;;;;;;;5.53;4.93;;;;;;;4.82;100.00;97489.59;5001058;28;20209;-53
2022/02/10 20:58:04;;;;;;;5.23;4.27;;;;;;;4.81;100.00;97482.69;5020147;28;20210;-47
2022/02/10 21:00:32;;;;;;;4.53;4.13;;;;;;;4.81;100.00;97476.59;5000918;28;20212;-49
2022/02/10 21:03:00;;;;;;;4.50;4.10;;;;;;;4.95;100.00;97481.44;4988157;28;20526;-48
2022/02/10 21:05:33;;;;;;;5.97;4.20;;;;;;;4.78;100.00;97486.41;5003009;28;20337;-50
2022/02/10 21:08:08;;;;;;;3.87;3.67;;;;;;;4.81;100.00;97476.59;4977037;28;20334;-46
2022/02/10 21:10:38;;;;;;;4.13;3.73;;;;;;;4.88;100.00;97481.16;5020945;28;20203;-48
2022/02/10 21:13:10;;;;;;;3.90;3.60;;;;;;;4.84;100.00;97482.41;5011157;28;20425;-48
2022/02/10 21:15:42;;;;;;;3.87;3.57;;;;;;;4.82;100.00;97479.09;5018279;28;20230;-45
2022/02/10 21:18:11;;;;;;;3.80;3.50;;;;;;;4.75;100.00;97480.63;4985217;28;20208;-47
2022/02/10 21:20:40;;;;;;;3.80;3.50;;;;;;;4.68;100.00;97477.72;5016936;28;20204;-50
2022/02/10 21:23:18;;;;;;;3.37;3.13;;;;;;;4.64;100.00;97479.78;4990512;28;20630;-48
2022/02/10 21:25:48;;;;;;;3.50;3.27;;;;;;;4.73;100.00;97467.63;5003963;28;20246;-50
2022/02/10 21:28:20;;;;;;;3.70;3.40;;;;;;;4.57;100.00;97476.06;5002712;28;20203;-48
2022/02/10 21:30:51;;;;;;;5.00;3.87;;;;;;;4.73;100.00;97483.38;5003215;28;20222;-48
2022/02/10 21:33:27;;;;;;;7.27;3.83;;;;;;;4.34;100.00;97455.34;4986141;28;20232;-50
2022/02/10 21:38:45;;;;;;;3.30;3.10;;;;;;;4.47;100.00;97467.38;4990237;28;20220;-49
2022/02/10 21:41:48;;;;;;;4.27;3.87;;;;;;;4.37;100.00;97463.91;5002108;28;20224;-50
2022/02/10 21:52:58;;;;;;;3.97;3.67;;;;;;;4.28;100.00;97460.31;5019563;28;20231;-50
2022/02/10 22:09:32;;;;;;;4.03;3.73;;;;;;;4.13;100.00;97462.50;4984351;28;20635;-51
2022/02/10 22:12:16;;;;;;;4.13;3.83;;;;;;;4.21;100.00;97465.28;5002856;28;20227;-53
2022/02/10 22:18:10;;;;;;;6.47;4.40;;;;;;;4.17;100.00;97469.97;5011612;28;20628;-50
2022/02/10 22:20:43;;;;;;;4.37;3.93;;;;;;;4.23;100.00;97465.16;5011091;28;20215;-50
2022/02/10 22:23:19;;;;;;;4.47;3.70;;;;;;;4.10;100.00;97468.84;5020244;28;20749;-47
2022/02/10 22:25:48;;;;;;;5.33;4.77;;;;;;;4.13;100.00;97462.50;4999089;28;20280;-49
2022/02/10 22:28:29;;;;;;;5.07;4.63;;;;;;;4.08;100.00;97467.34;5001856;28;20402;-48
2022/02/10 22:31:11;;;;;;;4.70;4.27;;;;;;;4.10;100.00;97468.03;4995972;28;20219;-47
2022/02/10 22:33:56;;;;;;;4.17;3.87;;;;;;;4.04;100.00;97465.00;5022178;28;20759;-51
2022/02/10 22:36:24;;;;;;;5.03;4.63;;;;;;;4.07;100.00;97460.44;5000225;28;20421;-47
2022/02/10 22:38:58;;;;;;;5.13;4.37;;;;;;;4.06;100.00;97459.59;5021114;28;20671;-47
2022/02/10 22:41:26;;;;;;;5.77;4.60;;;;;;;4.02;100.00;97463.47;4977752;28;20776;-52
2022/02/10 22:43:54;;;;;;;4.60;4.20;;;;;;;4.15;100.00;97458.78;5022435;28;20236;-51
2022/02/10 22:46:23;;;;;;;11.13;10.00;;;;;;;4.12;100.00;97456.41;5007315;28;20223;-53
2022/02/10 22:48:53;;;;;;;6.00;5.23;;;;;;;4.10;100.00;97453.09;5022194;28;20764;-51
2022/02/10 22:51:23;;;;;;;6.77;4.40;;;;;;;3.97;100.00;97455.16;4997821;28;20285;-46
2022/02/10 22:53:52;;;;;;;5.30;4.50;;;;;;;4.13;100.00;97449.41;5022357;28;20211;-48
2022/02/10 22:56:22;;;;;;;5.10;4.70;;;;;;;4.02;100.00;97456.44;4976383;28;20211;-47
2022/02/10 22:58:52;;;;;;;4.13;3.83;;;;;;;3.98;100.00;97449.81;5002215;28;21408;-49
2022/02/10 23:01:28;;;;;;;4.30;3.90;;;;;;;4.02;100.00;97448.56;5001771;28;20726;-51
2022/02/10 23:03:58;;;;;;;6.50;5.03;;;;;;;3.94;100.00;97451.00;5018353;28;20211;-51
2022/02/10 23:06:26;;;;;;;4.63;4.20;;;;;;;3.94;100.00;97453.63;4993815;28;20258;-47
2022/02/10 23:08:54;;;;;;;4.60;4.20;;;;;;;3.92;100.00;97447.69;5025991;28;20208;-49
2022/02/10 23:11:28;;;;;;;4.60;4.20;;;;;;;3.88;100.00;97446.31;4998829;28;20415;-47
2022/02/10 23:13:58;;;;;;;4.57;4.27;;;;;;;3.83;100.00;97448.50;5007844;28;20253;-49
2022/02/10 23:16:26;;;;;;;4.67;4.27;;;;;;;3.88;100.00;97449.78;5005235;28;20929;-48
2022/02/10 23:18:54;;;;;;;7.17;6.33;;;;;;;3.98;100.00;97443.72;5025058;28;20534;-50
2022/02/10 23:21:24;;;;;;;4.43;4.03;;;;;;;3.92;100.00;97450.31;4981999;28;20701;-47
2022/02/10 23:23:52;;;;;;;4.57;4.17;;;;;;;3.85;100.00;97443.97;5000408;28;20583;-47
2022/02/10 23:26:22;;;;;;;7.03;4.90;;;;;;;3.89;100.00;97434.88;5008290;28;20235;-52
2022/02/10 23:28:52;;;;;;;4.60;4.20;;;;;;;3.83;100.00;97432.78;4988261;28;20672;-50
2022/02/10 23:31:23;;;;;;;4.27;3.87;;;;;;;3.81;100.00;97430.31;5013948;28;20224;-50
2022/02/10 23:33:54;;;;;;;6.37;4.20;;;;;;;3.81;100.00;97430.31;5020345;28;20383;-50
2022/02/10 23:39:12;;;;;;;4.13;3.70;;;;;;;3.81;100.00;97425.06;5030403;28;20199;-49
2022/02/10 23:44:29;;;;;;;4.87;4.37;;;;;;;3.78;100.00;97424.50;4984516;28;20211;-49
2022/02/10 23:46:59;;;;;;;4.30;4.00;;;;;;;3.64;100.00;97421.31;5026097;28;20606;-48
2022/02/10 23:49:29;;;;;;;4.10;3.80;;;;;;;3.62;100.00;97416.19;5004618;28;20214;-53
2022/02/10 23:52:01;;;;;;;4.57;4.27;;;;;;;3.45;100.00;97411.59;4986273;28;20237;-49
2022/02/10 23:54:35;;;;;;;4.77;4.37;;;;;;;3.29;100.00;97414.72;5020491;28;20229;-51
2022/02/10 23:57:08;;;;;;;4.00;3.70;;;;;;;3.09;100.00;97412.00;5023129;28;20223;-53
2022/02/10 23:59:57;;;;;;;4.13;3.83;;;;;;;3.07;100.00;97400.03;4953684;28;20315;-49
